Time;durP1;ratioP1;P1;durP2;ratioP2;P2;SDS_P1;SDS_P2;PMS_P1;PMS_P2;Temp;Humidity;BMP_temperature;BMP_pressure;BME280_temperature;BME280_humidity;BME280_pressure;Samples;Min_cycle;Max_cycle;Signal;HPM_P1;HPM_P2
2023/01/09 00:01:11;;;;;;;5.95;3.45;;;;;;;;;;5035513;28;20045;-76
2023/01/09 00:03:37;;;;;;;5.97;2.67;;;;;;;;;;5035375;28;20415;-76
2023/01/09 00:06:03;;;;;;;6.70;2.67;;;;;;;;;;5030374;28;20073;-76
2023/01/09 00:08:29;;;;;;;5.28;2.63;;;;;;;;;;5035575;28;20128;-76
2023/01/09 00:10:55;;;;;;;5.43;2.97;;;;;;;;;;5032615;28;20041;-76
2023/01/09 00:13:22;;;;;;;7.22;2.90;;;;;;;;;;5030408;28;20049;-76
2023/01/09 00:15:48;;;;;;;8.18;3.20;;;;;;;;;;5022931;28;20385;-77
2023/01/09 00:18:14;;;;;;;4.22;2.60;;;;;;;;;;5015582;28;20057;-77
2023/01/09 00:20:40;;;;;;;5.35;3.10;;;;;;;;;;5014811;28;20053;-77
2023/01/09 00:23:06;;;;;;;5.93;2.95;;;;;;;;;;5015221;28;20112;-77
2023/01/09 00:25:32;;;;;;;5.22;3.20;;;;;;;;;;5015365;28;20050;-76
2023/01/09 00:27:58;;;;;;;6.38;3.40;;;;;;;;;;5015199;28;20038;-76
2023/01/09 00:30:25;;;;;;;5.40;2.92;;;;;;;;;;5015502;28;20049;-76
2023/01/09 00:32:51;;;;;;;5.55;3.00;;;;;;;;;;5015212;28;20045;-77
2023/01/09 00:35:17;;;;;;;5.85;3.10;;;;;;;;;;5015024;28;20045;-77
2023/01/09 00:37:44;;;;;;;4.95;3.13;;;;;;;;;;5028702;28;20042;-77
2023/01/09 00:40:10;;;;;;;4.10;3.17;;;;;;;;;;5015175;28;20050;-77
2023/01/09 00:42:36;;;;;;;4.10;3.22;;;;;;;;;;5015030;28;20058;-76
2023/01/09 00:45:04;;;;;;;5.10;2.92;;;;;;;;;;5014989;28;20053;-76
2023/01/09 00:47:37;;;;;;;5.82;3.25;;;;;;;;;;5015171;28;20495;-76
2023/01/09 00:50:05;;;;;;;4.35;3.28;;;;;;;;;;5031137;28;20048;-76
2023/01/09 00:52:33;;;;;;;4.68;2.80;;;;;;;;;;5038501;28;20081;-77
2023/01/09 00:54:59;;;;;;;5.32;2.70;;;;;;;;;;5055183;28;20540;-77
2023/01/09 00:57:25;;;;;;;5.70;2.97;;;;;;;;;;5038328;28;20042;-77
2023/01/09 00:59:51;;;;;;;7.15;2.75;;;;;;;;;;5045994;28;20428;-77
2023/01/09 01:02:17;;;;;;;6.70;3.03;;;;;;;;;;5013659;28;20050;-77
2023/01/09 01:07:37;;;;;;;8.30;3.00;;;;;;;;;;5014705;28;20050;-77
2023/01/09 01:10:04;;;;;;;6.30;2.85;;;;;;;;;;5018750;28;20046;-77
2023/01/09 01:12:30;;;;;;;6.75;2.83;;;;;;;;;;5013942;28;20064;-77
2023/01/09 01:14:56;;;;;;;4.90;2.80;;;;;;;;;;5014209;28;20056;-76
2023/01/09 01:17:22;;;;;;;5.57;2.80;;;;;;;;;;5014591;28;20049;-76
2023/01/09 01:19:48;;;;;;;4.70;2.92;;;;;;;;;;5014495;28;20046;-76
2023/01/09 01:22:14;;;;;;;7.18;2.80;;;;;;;;;;5014926;28;20127;-76
2023/01/09 01:24:41;;;;;;;7.47;2.88;;;;;;;;;;5014308;28;20046;-77
2023/01/09 01:27:07;;;;;;;5.13;2.80;;;;;;;;;;5014097;28;20125;-77
2023/01/09 01:29:33;;;;;;;5.45;3.17;;;;;;;;;;5014247;28;20073;-77
2023/01/09 01:31:59;;;;;;;6.40;3.17;;;;;;;;;;5014608;28;20042;-77
2023/01/09 01:34:25;;;;;;;6.03;3.03;;;;;;;;;;5016232;28;20042;-77
2023/01/09 01:36:51;;;;;;;6.90;2.92;;;;;;;;;;5015610;28;20487;-76
2023/01/09 01:39:17;;;;;;;5.55;2.70;;;;;;;;;;5024702;28;20490;-76
2023/01/09 01:41:43;;;;;;;6.10;2.70;;;;;;;;;;5033673;28;20514;-76
2023/01/09 01:44:28;;;;;;;8.52;3.00;;;;;;;;;;5033812;28;20084;-76
2023/01/09 01:46:55;;;;;;;4.13;2.33;;;;;;;;;;5033203;28;20042;-76
2023/01/09 01:49:21;;;;;;;7.68;2.80;;;;;;;;;;5028606;28;20038;-76
2023/01/09 01:51:48;;;;;;;8.57;2.72;;;;;;;;;;5013803;28;20042;-76
2023/01/09 01:54:18;;;;;;;7.47;2.50;;;;;;;;;;5014688;28;20050;-76
2023/01/09 01:56:46;;;;;;;6.88;2.72;;;;;;;;;;5014211;28;20065;-76
2023/01/09 01:59:26;;;;;;;6.40;2.70;;;;;;;;;;5013965;28;20485;-76
2023/01/09 02:01:54;;;;;;;6.63;2.72;;;;;;;;;;5013981;28;20064;-77
2023/01/09 02:04:20;;;;;;;5.68;2.50;;;;;;;;;;5013961;28;20480;-77
2023/01/09 02:06:47;;;;;;;7.28;2.63;;;;;;;;;;5016077;28;20042;-77
2023/01/09 02:09:16;;;;;;;5.90;2.80;;;;;;;;;;5028710;28;20042;-77
2023/01/09 02:11:46;;;;;;;6.72;2.58;;;;;;;;;;5031881;28;20045;-77
2023/01/09 02:14:15;;;;;;;6.45;2.40;;;;;;;;;;5033093;28;20104;-77
2023/01/09 02:16:59;;;;;;;4.93;2.38;;;;;;;;;;5033723;28;20133;-77
2023/01/09 02:19:37;;;;;;;5.97;2.75;;;;;;;;;;5032887;28;20037;-76
2023/01/09 02:22:12;;;;;;;8.90;2.65;;;;;;;;;;5030911;28;20042;-77
2023/01/09 02:24:38;;;;;;;6.63;2.35;;;;;;;;;;5003626;28;20128;-77
2023/01/09 02:27:23;;;;;;;9.38;2.75;;;;;;;;;;5028554;28;20077;-76
2023/01/09 02:30:08;;;;;;;7.45;2.50;;;;;;;;;;5028965;28;20054;-77
2023/01/09 02:32:52;;;;;;;9.18;3.20;;;;;;;;;;5014103;28;20049;-76
2023/01/09 02:35:24;;;;;;;8.10;2.80;;;;;;;;;;5013637;28;20042;-77
2023/01/09 02:38:09;;;;;;;8.63;3.20;;;;;;;;;;5017341;28;20042;-77
2023/01/09 02:40:47;;;;;;;6.78;2.85;;;;;;;;;;5017162;28;20461;-76
2023/01/09 02:43:14;;;;;;;11.52;2.80;;;;;;;;;;5018783;28;20092;-76
2023/01/09 02:45:40;;;;;;;9.55;2.45;;;;;;;;;;5027880;28;20385;-76
2023/01/09 02:48:07;;;;;;;5.82;2.75;;;;;;;;;;5016662;28;20468;-76
2023/01/09 02:50:50;;;;;;;7.88;2.53;;;;;;;;;;5017049;28;20049;-76
2023/01/09 02:53:35;;;;;;;7.50;2.40;;;;;;;;;;5017327;28;20046;-77
2023/01/09 02:56:07;;;;;;;8.77;2.50;;;;;;;;;;5017188;28;20077;-76
2023/01/09 02:58:46;;;;;;;7.70;2.83;;;;;;;;;;5023010;28;20045;-77
2023/01/09 03:01:12;;;;;;;6.65;2.42;;;;;;;;;;5015309;28;20058;-76
2023/01/09 03:03:57;;;;;;;8.27;2.75;;;;;;;;;;5017048;28;20042;-77
2023/01/09 03:06:42;;;;;;;7.55;2.60;;;;;;;;;;5009695;28;20088;-76
2023/01/09 03:09:13;;;;;;;7.28;2.60;;;;;;;;;;5032357;28;20078;-76
2023/01/09 03:11:43;;;;;;;6.43;2.60;;;;;;;;;;5022765;28;20092;-76
2023/01/09 03:14:13;;;;;;;6.07;2.90;;;;;;;;;;5043628;28;20053;-76
2023/01/09 03:16:39;;;;;;;8.77;2.88;;;;;;;;;;5036163;28;20085;-76
2023/01/09 03:19:07;;;;;;;9.73;3.00;;;;;;;;;;5035859;28;20073;-76
2023/01/09 03:21:33;;;;;;;6.25;2.88;;;;;;;;;;5036675;28;20106;-76
2023/01/09 03:24:00;;;;;;;6.18;3.50;;;;;;;;;;5033908;28;20144;-76
2023/01/09 03:26:30;;;;;;;5.55;3.30;;;;;;;;;;5033452;28;20049;-76
2023/01/09 03:28:57;;;;;;;9.18;3.33;;;;;;;;;;5024108;28;20042;-76
2023/01/09 03:31:23;;;;;;;9.52;3.75;;;;;;;;;;5035247;28;20052;-76
2023/01/09 03:33:49;;;;;;;7.70;3.63;;;;;;;;;;5034967;28;20049;-76
2023/01/09 03:36:17;;;;;;;6.10;3.40;;;;;;;;;;5035161;28;20037;-76
2023/01/09 03:38:43;;;;;;;8.23;4.03;;;;;;;;;;5030720;28;20045;-76
2023/01/09 03:41:09;;;;;;;9.55;3.85;;;;;;;;;;5018786;28;20050;-76
2023/01/09 03:43:35;;;;;;;10.25;3.78;;;;;;;;;;5015520;28;20056;-76
2023/01/09 03:46:01;;;;;;;7.57;3.50;;;;;;;;;;5017343;28;20042;-76
2023/01/09 03:48:27;;;;;;;11.07;4.07;;;;;;;;;;5015267;28;20042;-76
2023/01/09 03:50:54;;;;;;;10.27;3.90;;;;;;;;;;5016127;28;20045;-76
2023/01/09 03:53:21;;;;;;;6.90;3.40;;;;;;;;;;5015276;28;20388;-76
2023/01/09 03:55:48;;;;;;;7.28;3.45;;;;;;;;;;5015862;28;20044;-76
2023/01/09 03:58:14;;;;;;;9.25;3.55;;;;;;;;;;5015630;28;20080;-76
2023/01/09 04:00:40;;;;;;;7.28;3.58;;;;;;;;;;5016262;28;20077;-76
2023/01/09 04:03:07;;;;;;;10.20;3.50;;;;;;;;;;4997876;28;20065;-76
2023/01/09 04:05:34;;;;;;;8.35;3.15;;;;;;;;;;5015906;28;20045;-76
2023/01/09 04:08:00;;;;;;;8.55;3.53;;;;;;;;;;5021080;28;20084;-76
2023/01/09 04:10:26;;;;;;;9.18;3.88;;;;;;;;;;5019777;28;20100;-76
2023/01/09 04:12:52;;;;;;;9.43;3.70;;;;;;;;;;5038773;28;20056;-77
2023/01/09 04:15:18;;;;;;;6.95;3.38;;;;;;;;;;5027082;28;20054;-77
2023/01/09 04:17:44;;;;;;;8.82;3.65;;;;;;;;;;5016098;28;20053;-76
2023/01/09 04:20:10;;;;;;;8.35;3.80;;;;;;;;;;5015183;28;20047;-76
2023/01/09 04:22:37;;;;;;;6.18;3.10;;;;;;;;;;5026568;28;20041;-76
2023/01/09 04:25:03;;;;;;;7.03;3.95;;;;;;;;;;5034957;28;20053;-76
2023/01/09 04:27:29;;;;;;;10.55;4.25;;;;;;;;;;5016630;28;20049;-76
2023/01/09 04:29:55;;;;;;;9.48;3.90;;;;;;;;;;5034945;28;20487;-76
2023/01/09 04:32:21;;;;;;;9.27;4.30;;;;;;;;;;5034964;28;20541;-76
2023/01/09 04:34:47;;;;;;;7.85;4.07;;;;;;;;;;5032439;28;20041;-76
2023/01/09 04:37:13;;;;;;;8.63;4.00;;;;;;;;;;5040935;28;20046;-76
2023/01/09 04:39:42;;;;;;;9.25;4.32;;;;;;;;;;5033424;28;20041;-76
2023/01/09 04:42:08;;;;;;;9.75;4.20;;;;;;;;;;5034706;28;20049;-76
2023/01/09 04:44:34;;;;;;;10.00;4.25;;;;;;;;;;5034106;28;20132;-76
2023/01/09 04:47:00;;;;;;;7.57;4.40;;;;;;;;;;5034748;28;20037;-76
2023/01/09 04:49:26;;;;;;;7.47;4.30;;;;;;;;;;5034808;28;20053;-76
2023/01/09 04:51:54;;;;;;;13.15;5.13;;;;;;;;;;5026402;28;20037;-76
2023/01/09 04:54:20;;;;;;;9.75;4.60;;;;;;;;;;5034764;28;20139;-76
2023/01/09 04:56:46;;;;;;;11.00;5.10;;;;;;;;;;5034725;28;20172;-76
2023/01/09 04:59:12;;;;;;;7.72;4.88;;;;;;;;;;5034088;28;20052;-76
2023/01/09 05:01:38;;;;;;;9.15;5.18;;;;;;;;;;5034480;28;20044;-76
2023/01/09 05:04:05;;;;;;;13.25;5.85;;;;;;;;;;5034307;28;20049;-76
2023/01/09 05:06:31;;;;;;;11.90;5.07;;;;;;;;;;5030245;28;20116;-76
2023/01/09 05:08:57;;;;;;;12.27;5.05;;;;;;;;;;5015112;28;20053;-76
2023/01/09 05:11:24;;;;;;;11.98;4.85;;;;;;;;;;5021011;28;20042;-76
2023/01/09 05:13:50;;;;;;;13.63;6.15;;;;;;;;;;5014274;28;20508;-76
2023/01/09 05:16:16;;;;;;;11.07;5.45;;;;;;;;;;5014149;28;20386;-76
2023/01/09 05:18:43;;;;;;;12.30;5.20;;;;;;;;;;5013984;28;20555;-76
2023/01/09 05:21:09;;;;;;;10.48;5.13;;;;;;;;;;5014380;28;20038;-76
2023/01/09 05:23:35;;;;;;;11.20;5.50;;;;;;;;;;5016906;28;20077;-76
2023/01/09 05:26:03;;;;;;;9.95;5.50;;;;;;;;;;5015019;28;20052;-76
2023/01/09 05:28:29;;;;;;;9.27;5.43;;;;;;;;;;5034221;28;20055;-76
2023/01/09 05:30:55;;;;;;;13.43;5.93;;;;;;;;;;5019296;28;20542;-76
2023/01/09 05:33:21;;;;;;;12.63;5.57;;;;;;;;;;5013051;28;20050;-76
2023/01/09 05:35:47;;;;;;;9.77;5.65;;;;;;;;;;5021727;28;20038;-76
2023/01/09 05:38:13;;;;;;;6.63;5.25;;;;;;;;;;5016026;28;20138;-77
2023/01/09 05:40:39;;;;;;;11.18;5.57;;;;;;;;;;5014215;28;20046;-76
2023/01/09 05:43:05;;;;;;;11.02;5.45;;;;;;;;;;5012987;28;20460;-76
2023/01/09 05:45:31;;;;;;;9.48;5.78;;;;;;;;;;5015460;28;20485;-77
2023/01/09 05:47:57;;;;;;;12.40;5.40;;;;;;;;;;5012622;28;20073;-76
2023/01/09 05:50:23;;;;;;;10.35;5.72;;;;;;;;;;5013055;28;20473;-76
2023/01/09 05:52:49;;;;;;;11.27;5.60;;;;;;;;;;5013211;28;20362;-76
2023/01/09 05:55:15;;;;;;;12.13;5.80;;;;;;;;;;5012578;28;20484;-76
2023/01/09 05:57:41;;;;;;;8.75;5.32;;;;;;;;;;5012932;28;20041;-76
2023/01/09 06:00:07;;;;;;;12.55;6.57;;;;;;;;;;5013369;28;20477;-76
2023/01/09 06:02:34;;;;;;;10.73;6.38;;;;;;;;;;5012447;28;20103;-77
2023/01/09 06:05:00;;;;;;;14.40;6.00;;;;;;;;;;5012269;28;20413;-76
2023/01/09 06:07:26;;;;;;;10.70;6.45;;;;;;;;;;5025936;28;20560;-77
2023/01/09 06:09:52;;;;;;;13.25;6.80;;;;;;;;;;5032165;28;20049;-76
2023/01/09 06:12:21;;;;;;;14.30;7.45;;;;;;;;;;5036109;28;20578;-77
2023/01/09 06:14:47;;;;;;;12.73;6.50;;;;;;;;;;5031453;28;20042;-77
2023/01/09 06:17:13;;;;;;;15.10;7.50;;;;;;;;;;5017881;28;20125;-76
2023/01/09 06:19:39;;;;;;;12.02;6.63;;;;;;;;;;5017875;28;20060;-76
2023/01/09 06:22:05;;;;;;;15.13;7.45;;;;;;;;;;5017872;28;20072;-76
2023/01/09 06:24:31;;;;;;;13.02;7.90;;;;;;;;;;5015850;28;20468;-76
2023/01/09 06:26:57;;;;;;;13.93;7.60;;;;;;;;;;5020877;28;20069;-76
2023/01/09 06:29:23;;;;;;;14.18;8.27;;;;;;;;;;5036516;28;20065;-77
2023/01/09 06:31:49;;;;;;;19.50;9.02;;;;;;;;;;5037646;28;20080;-76
2023/01/09 06:34:15;;;;;;;13.85;8.05;;;;;;;;;;5035474;28;20103;-76
2023/01/09 06:36:41;;;;;;;15.55;8.57;;;;;;;;;;5017019;28;20042;-76
2023/01/09 06:39:07;;;;;;;15.32;8.63;;;;;;;;;;5016686;28;20350;-76
2023/01/09 06:41:34;;;;;;;15.30;8.55;;;;;;;;;;5016543;28;20038;-76
2023/01/09 06:44:00;;;;;;;14.60;8.93;;;;;;;;;;5018232;28;20050;-77
2023/01/09 06:46:26;;;;;;;16.88;9.63;;;;;;;;;;5024667;28;20064;-77
2023/01/09 06:48:52;;;;;;;17.58;9.55;;;;;;;;;;5033982;28;20052;-77
2023/01/09 06:51:18;;;;;;;15.27;9.02;;;;;;;;;;5016681;28;20041;-77
2023/01/09 06:53:44;;;;;;;16.40;9.77;;;;;;;;;;5016941;28;20232;-77
2023/01/09 06:56:10;;;;;;;16.10;9.57;;;;;;;;;;5016692;28;20514;-77
2023/01/09 06:58:36;;;;;;;17.05;10.50;;;;;;;;;;5036815;28;20160;-77
2023/01/09 07:01:02;;;;;;;18.20;11.40;;;;;;;;;;5032111;28;20073;-77
2023/01/09 07:03:28;;;;;;;19.08;10.95;;;;;;;;;;5017232;28;20046;-77
2023/01/09 07:05:55;;;;;;;17.65;10.75;;;;;;;;;;5016851;28;20053;-77
2023/01/09 07:08:21;;;;;;;19.48;11.00;;;;;;;;;;5015961;28;20038;-76
2023/01/09 07:10:47;;;;;;;18.58;11.43;;;;;;;;;;5036464;28;20476;-77
2023/01/09 07:13:13;;;;;;;18.75;12.13;;;;;;;;;;5035971;28;20496;-77
2023/01/09 07:15:39;;;;;;;19.92;11.32;;;;;;;;;;5025513;28;20511;-79
2023/01/09 07:18:05;;;;;;;19.45;12.40;;;;;;;;;;5016570;28;20443;-77
2023/01/09 07:20:31;;;;;;;18.08;11.63;;;;;;;;;;5021815;28;20041;-76
2023/01/09 07:22:57;;;;;;;18.90;12.23;;;;;;;;;;5022996;28;20100;-76
2023/01/09 07:25:23;;;;;;;19.50;12.48;;;;;;;;;;5023491;28;20155;-76
2023/01/09 07:27:49;;;;;;;18.00;12.32;;;;;;;;;;5024458;28;20373;-77
2023/01/09 07:30:15;;;;;;;19.50;12.02;;;;;;;;;;5015113;28;20061;-76
2023/01/09 07:32:44;;;;;;;19.95;11.40;;;;;;;;;;5015025;28;20045;-77
2023/01/09 07:35:10;;;;;;;21.23;11.40;;;;;;;;;;4998591;28;20125;-77
2023/01/09 07:37:36;;;;;;;20.23;12.32;;;;;;;;;;5018436;28;20383;-77
2023/01/09 07:40:02;;;;;;;17.92;12.55;;;;;;;;;;5015224;28;20050;-76
2023/01/09 07:42:29;;;;;;;17.75;11.35;;;;;;;;;;5016304;28;20042;-76
2023/01/09 07:44:55;;;;;;;17.83;11.18;;;;;;;;;;5016328;28;20052;-77
2023/01/09 07:47:21;;;;;;;17.77;11.93;;;;;;;;;;5015152;28;20073;-77
2023/01/09 07:49:47;;;;;;;15.38;10.75;;;;;;;;;;5016004;28;20372;-76
2023/01/09 07:52:13;;;;;;;16.45;11.15;;;;;;;;;;5015986;28;20042;-76
2023/01/09 07:54:39;;;;;;;18.67;11.30;;;;;;;;;;5014403;28;20389;-76
2023/01/09 07:57:05;;;;;;;17.65;11.77;;;;;;;;;;5014337;28;20042;-76
2023/01/09 07:59:31;;;;;;;18.83;12.07;;;;;;;;;;5028924;28;20041;-76
2023/01/09 08:01:57;;;;;;;19.48;11.82;;;;;;;;;;5022788;28;20050;-76
2023/01/09 08:04:24;;;;;;;16.35;10.93;;;;;;;;;;5015133;28;20065;-76
2023/01/09 08:06:50;;;;;;;17.73;12.20;;;;;;;;;;5019738;28;20042;-76
2023/01/09 08:09:16;;;;;;;18.75;12.13;;;;;;;;;;5026627;28;20052;-77
2023/01/09 08:11:42;;;;;;;17.27;11.20;;;;;;;;;;5022116;28;20500;-76
2023/01/09 08:14:08;;;;;;;16.42;10.43;;;;;;;;;;5015259;28;20054;-76
2023/01/09 08:16:34;;;;;;;20.58;13.20;;;;;;;;;;5014779;28;20126;-76
2023/01/09 08:19:00;;;;;;;21.63;13.00;;;;;;;;;;5016092;28;20740;-76
2023/01/09 08:21:26;;;;;;;18.60;12.43;;;;;;;;;;5028085;28;20042;-76
2023/01/09 08:23:52;;;;;;;17.80;10.98;;;;;;;;;;5017065;28;20073;-76
2023/01/09 08:26:18;;;;;;;19.98;10.75;;;;;;;;;;5014796;28;20049;-76
2023/01/09 08:28:44;;;;;;;15.50;9.73;;;;;;;;;;5015865;28;20049;-76
2023/01/09 08:31:10;;;;;;;16.20;9.60;;;;;;;;;;5028724;28;20385;-76
2023/01/09 08:33:36;;;;;;;15.35;10.75;;;;;;;;;;5033215;28;20079;-76
2023/01/09 08:36:03;;;;;;;16.50;9.70;;;;;;;;;;5021240;28;20038;-76
2023/01/09 08:38:29;;;;;;;16.75;9.95;;;;;;;;;;5026132;28;20473;-77
2023/01/09 08:40:55;;;;;;;13.50;9.15;;;;;;;;;;5018002;28;20045;-77
2023/01/09 08:48:50;;;;;;;13.63;9.45;;;;;;;;;;5029268;28;20500;-77
2023/01/09 08:51:16;;;;;;;12.77;8.32;;;;;;;;;;5020394;28;20164;-77
2023/01/09 08:53:42;;;;;;;14.68;9.00;;;;;;;;;;5034646;28;20049;-77
2023/01/09 08:56:09;;;;;;;12.95;9.30;;;;;;;;;;5033812;28;20081;-80
2023/01/09 08:58:35;;;;;;;16.17;9.55;;;;;;;;;;5023952;28;20128;-78
2023/01/09 09:01:04;;;;;;;14.25;8.70;;;;;;;;;;5019096;28;20037;-77
2023/01/09 09:03:30;;;;;;;11.98;7.72;;;;;;;;;;5035352;28;20049;-78
2023/01/09 09:05:56;;;;;;;13.25;8.57;;;;;;;;;;5036358;28;20045;-77
2023/01/09 09:08:22;;;;;;;15.07;7.93;;;;;;;;;;5018626;28;20077;-78
2023/01/09 09:10:48;;;;;;;12.15;7.93;;;;;;;;;;5021620;28;20045;-77
2023/01/09 09:13:14;;;;;;;13.93;7.53;;;;;;;;;;5018013;28;20056;-76
2023/01/09 09:15:41;;;;;;;10.45;7.07;;;;;;;;;;5031057;28;20064;-76
2023/01/09 09:18:08;;;;;;;12.27;7.43;;;;;;;;;;5033200;28;20128;-76
2023/01/09 09:20:35;;;;;;;13.65;7.63;;;;;;;;;;5031579;28;20057;-76
2023/01/09 09:23:01;;;;;;;13.23;7.00;;;;;;;;;;5025966;28;20122;-76
2023/01/09 09:25:27;;;;;;;12.52;7.80;;;;;;;;;;5016731;28;20041;-76
2023/01/09 09:27:55;;;;;;;13.90;7.30;;;;;;;;;;5020242;28;20154;-78
2023/01/09 09:30:21;;;;;;;11.05;7.07;;;;;;;;;;5024441;28;20569;-76
2023/01/09 09:32:48;;;;;;;10.98;6.85;;;;;;;;;;5026287;28;20412;-76
2023/01/09 09:35:16;;;;;;;11.10;6.90;;;;;;;;;;5015931;28;20041;-76
2023/01/09 09:37:42;;;;;;;11.70;7.32;;;;;;;;;;5026060;28;20045;-76
2023/01/09 09:40:19;;;;;;;11.65;7.60;;;;;;;;;;5027157;28;20042;-77
2023/01/09 09:45:57;;;;;;;12.20;6.65;;;;;;;;;;5022157;28;20081;-77
2023/01/09 09:48:35;;;;;;;12.30;7.78;;;;;;;;;;5016773;28;20038;-77
2023/01/09 09:51:21;;;;;;;9.18;6.78;;;;;;;;;;5027028;28;20061;-76
2023/01/09 09:53:51;;;;;;;10.88;6.50;;;;;;;;;;5028579;28;20491;-76
2023/01/09 09:56:19;;;;;;;10.77;7.20;;;;;;;;;;5020601;28;20096;-76
2023/01/09 09:59:05;;;;;;;13.00;7.20;;;;;;;;;;5025788;28;20053;-77
2023/01/09 10:01:44;;;;;;;10.02;6.93;;;;;;;;;;5031774;28;20073;-76
2023/01/09 10:04:15;;;;;;;10.25;6.57;;;;;;;;;;5031753;28;20380;-76
2023/01/09 10:06:46;;;;;;;10.70;7.65;;;;;;;;;;5020437;28;20056;-76
2023/01/09 10:09:23;;;;;;;15.30;6.88;;;;;;;;;;5019805;28;20424;-77
2023/01/09 10:11:58;;;;;;;10.43;6.40;;;;;;;;;;5028909;28;20060;-77
2023/01/09 10:14:25;;;;;;;9.25;7.03;;;;;;;;;;5019384;28;20103;-77
2023/01/09 10:17:02;;;;;;;8.02;5.65;;;;;;;;;;5030839;28;20121;-76
2023/01/09 10:19:28;;;;;;;9.38;5.90;;;;;;;;;;5024759;28;20132;-76
2023/01/09 10:22:09;;;;;;;8.68;6.05;;;;;;;;;;5033038;28;20053;-76
2023/01/09 10:24:54;;;;;;;10.70;6.25;;;;;;;;;;5032885;28;20045;-76
2023/01/09 10:27:39;;;;;;;10.27;6.75;;;;;;;;;;5018793;28;20037;-76
2023/01/09 10:30:08;;;;;;;10.38;6.65;;;;;;;;;;5028737;28;20042;-75
2023/01/09 10:32:37;;;;;;;9.88;5.82;;;;;;;;;;5045402;28;20049;-76
2023/01/09 10:35:18;;;;;;;10.38;7.13;;;;;;;;;;5032552;28;20034;-77
2023/01/09 10:37:45;;;;;;;11.02;6.45;;;;;;;;;;5052004;28;20049;-76
2023/01/09 10:40:14;;;;;;;9.30;6.43;;;;;;;;;;5034481;28;20049;-76
2023/01/09 10:42:46;;;;;;;10.30;6.40;;;;;;;;;;5026171;28;20044;-75
2023/01/09 10:45:15;;;;;;;10.20;7.53;;;;;;;;;;5032150;28;20084;-75
2023/01/09 10:47:42;;;;;;;11.80;6.80;;;;;;;;;;5028197;28;20068;-75
2023/01/09 10:50:20;;;;;;;10.98;6.72;;;;;;;;;;5019371;28;20068;-76
2023/01/09 10:52:48;;;;;;;16.13;7.57;;;;;;;;;;5017857;28;20054;-75
2023/01/09 10:55:26;;;;;;;11.95;7.20;;;;;;;;;;5026063;28;20542;-78
2023/01/09 10:57:54;;;;;;;9.13;6.20;;;;;;;;;;5027005;28;20353;-76
2023/01/09 11:00:22;;;;;;;12.38;7.35;;;;;;;;;;5028094;28;20095;-78
2023/01/09 11:02:48;;;;;;;11.23;6.32;;;;;;;;;;5023880;28;20056;-75
2023/01/09 11:05:19;;;;;;;10.43;6.25;;;;;;;;;;5031776;28;20075;-76
2023/01/09 11:07:47;;;;;;;9.25;6.50;;;;;;;;;;5033791;28;20072;-76
2023/01/09 11:10:14;;;;;;;12.77;6.78;;;;;;;;;;5033966;28;20057;-76
2023/01/09 11:12:40;;;;;;;9.60;6.15;;;;;;;;;;5023839;28;20507;-76
2023/01/09 11:15:15;;;;;;;11.18;7.93;;;;;;;;;;5027310;28;20053;-76
2023/01/09 11:17:49;;;;;;;10.88;6.80;;;;;;;;;;5037471;28;20565;-76
2023/01/09 11:20:17;;;;;;;8.20;5.88;;;;;;;;;;5032439;28;20183;-76
2023/01/09 11:22:47;;;;;;;9.02;7.00;;;;;;;;;;5030720;28;20358;-75
2023/01/09 11:25:15;;;;;;;11.13;6.68;;;;;;;;;;5032609;28;20052;-75
2023/01/09 11:27:41;;;;;;;9.27;6.68;;;;;;;;;;5031842;28;20041;-76
2023/01/09 11:30:25;;;;;;;11.60;6.53;;;;;;;;;;5030706;28;20392;-76
2023/01/09 11:32:51;;;;;;;10.85;7.70;;;;;;;;;;5033553;28;20053;-75
2023/01/09 11:35:26;;;;;;;11.82;9.02;;;;;;;;;;5028701;28;20042;-75
2023/01/09 11:38:01;;;;;;;10.98;7.20;;;;;;;;;;5034068;28;20052;-75
2023/01/09 11:40:29;;;;;;;11.33;8.23;;;;;;;;;;5022725;28;20079;-75
2023/01/09 11:43:16;;;;;;;11.27;7.15;;;;;;;;;;5033772;28;20819;-75
2023/01/09 11:45:44;;;;;;;11.23;7.30;;;;;;;;;;5031707;28;20045;-75
2023/01/09 11:48:30;;;;;;;10.23;7.30;;;;;;;;;;5024590;28;20388;-75
2023/01/09 11:50:57;;;;;;;10.88;6.95;;;;;;;;;;5030010;28;20048;-75
2023/01/09 11:53:24;;;;;;;8.27;6.07;;;;;;;;;;5032334;28;20033;-76
2023/01/09 11:56:03;;;;;;;8.38;6.13;;;;;;;;;;5025869;28;20046;-76
2023/01/09 11:58:31;;;;;;;10.15;6.47;;;;;;;;;;5030597;28;20503;-75
2023/01/09 12:01:12;;;;;;;11.13;6.45;;;;;;;;;;5030279;28;20045;-75
2023/01/09 12:03:41;;;;;;;11.02;6.95;;;;;;;;;;5029604;28;20080;-76
2023/01/09 12:06:19;;;;;;;10.40;6.32;;;;;;;;;;5016934;28;20133;-76
2023/01/09 12:08:54;;;;;;;10.25;7.25;;;;;;;;;;5033685;28;20057;-76
2023/01/09 12:11:35;;;;;;;11.90;7.50;;;;;;;;;;5035083;28;20052;-76
2023/01/09 12:14:09;;;;;;;9.18;6.80;;;;;;;;;;5014727;28;20050;-76
2023/01/09 12:16:53;;;;;;;13.13;7.80;;;;;;;;;;5025507;28;20049;-76
2023/01/09 12:19:19;;;;;;;10.68;7.05;;;;;;;;;;5028805;28;20041;-76
2023/01/09 12:22:05;;;;;;;14.00;8.32;;;;;;;;;;5024357;28;20041;-76
2023/01/09 12:24:44;;;;;;;12.13;7.57;;;;;;;;;;5017267;28;20046;-75
2023/01/09 12:27:29;;;;;;;12.23;7.45;;;;;;;;;;5022228;28;20045;-75
2023/01/09 12:30:01;;;;;;;11.20;6.93;;;;;;;;;;5020720;28;20063;-75
2023/01/09 12:32:30;;;;;;;13.32;8.18;;;;;;;;;;5025148;28;20069;-75
2023/01/09 12:35:15;;;;;;;9.57;7.35;;;;;;;;;;5024632;28;20080;-75
2023/01/09 12:38:01;;;;;;;12.07;6.97;;;;;;;;;;5036253;28;20042;-75
2023/01/09 12:40:27;;;;;;;12.20;7.65;;;;;;;;;;5033892;28;20079;-76
2023/01/09 12:42:53;;;;;;;15.45;8.00;;;;;;;;;;5027755;28;20046;-76
2023/01/09 12:45:48;;;;;;;11.75;8.30;;;;;;;;;;5022756;28;20116;-75
2023/01/09 12:48:21;;;;;;;13.25;8.20;;;;;;;;;;5019263;28;20167;-75
2023/01/09 12:50:52;;;;;;;12.18;7.53;;;;;;;;;;5021180;28;20042;-75
2023/01/09 12:53:24;;;;;;;13.80;8.48;;;;;;;;;;5028895;28;20388;-75
2023/01/09 12:55:55;;;;;;;12.63;7.10;;;;;;;;;;5033330;28;20045;-77
2023/01/09 12:58:33;;;;;;;10.60;7.18;;;;;;;;;;5016880;28;20447;-76
2023/01/09 13:01:00;;;;;;;11.75;8.15;;;;;;;;;;5034219;28;20052;-76
2023/01/09 13:04:01;;;;;;;12.45;7.75;;;;;;;;;;5033956;28;20037;-76
2023/01/09 13:06:28;;;;;;;9.85;5.97;;;;;;;;;;4953685;29;20534;-76
2023/01/09 13:09:00;;;;;;;12.13;6.63;;;;;;;;;;4962911;28;20051;-76
2023/01/09 13:11:40;;;;;;;11.38;6.13;;;;;;;;;;4956494;28;20058;-76
2023/01/09 13:14:11;;;;;;;11.45;6.47;;;;;;;;;;4953665;29;20051;-76
2023/01/09 13:16:40;;;;;;;12.80;6.50;;;;;;;;;;4957342;28;20093;-76
2023/01/09 13:19:16;;;;;;;11.25;6.00;;;;;;;;;;4966310;28;20057;-76
2023/01/09 13:21:42;;;;;;;17.40;7.00;;;;;;;;;;4941699;29;20051;-76
2023/01/09 13:24:17;;;;;;;10.15;4.85;;;;;;;;;;4966181;28;20038;-76
2023/01/09 13:26:46;;;;;;;8.40;3.97;;;;;;;;;;4951570;29;20063;-76
2023/01/09 13:29:32;;;;;;;9.13;4.43;;;;;;;;;;4953834;28;20058;-76
2023/01/09 13:32:16;;;;;;;10.00;4.22;;;;;;;;;;4953032;29;20043;-75
2023/01/09 13:34:45;;;;;;;13.18;4.03;;;;;;;;;;4941606;29;20051;-75
2023/01/09 13:37:33;;;;;;;11.98;3.88;;;;;;;;;;4954897;28;20047;-75
2023/01/09 13:40:01;;;;;;;12.00;3.60;;;;;;;;;;4992260;28;20061;-75
2023/01/09 13:42:45;;;;;;;8.13;4.00;;;;;;;;;;5031617;28;20419;-76
2023/01/09 13:45:17;;;;;;;9.05;3.28;;;;;;;;;;5032082;28;20049;-75
2023/01/09 13:47:43;;;;;;;8.18;3.30;;;;;;;;;;5027617;28;20048;-75
2023/01/09 13:50:09;;;;;;;7.65;3.53;;;;;;;;;;5019931;28;20046;-76
2023/01/09 13:52:36;;;;;;;10.00;3.47;;;;;;;;;;5039517;28;20060;-76
2023/01/09 13:55:22;;;;;;;11.63;4.35;;;;;;;;;;5033785;28;20045;-76
2023/01/09 13:58:03;;;;;;;11.88;4.10;;;;;;;;;;5025455;28;20088;-76
2023/01/09 14:00:35;;;;;;;7.47;3.88;;;;;;;;;;5033264;28;20491;-76
2023/01/09 14:03:22;;;;;;;13.45;3.97;;;;;;;;;;5032717;28;20068;-76
2023/01/09 14:05:48;;;;;;;7.32;3.70;;;;;;;;;;5019611;28;20143;-76
2023/01/09 14:08:19;;;;;;;10.73;3.17;;;;;;;;;;5033085;28;20492;-76
2023/01/09 14:10:48;;;;;;;10.77;3.45;;;;;;;;;;5028149;28;20380;-75
2023/01/09 14:13:20;;;;;;;10.50;3.15;;;;;;;;;;5019976;28;20127;-75
2023/01/09 14:15:48;;;;;;;6.65;2.90;;;;;;;;;;5019799;28;20050;-75
2023/01/09 14:18:25;;;;;;;12.35;3.53;;;;;;;;;;5010976;28;20050;-75
2023/01/09 14:20:56;;;;;;;12.23;4.05;;;;;;;;;;5019018;28;20053;-76
2023/01/09 14:23:27;;;;;;;12.07;3.15;;;;;;;;;;5033235;28;20113;-76
2023/01/09 14:25:56;;;;;;;14.50;4.18;;;;;;;;;;5024145;28;20048;-76
2023/01/09 14:28:26;;;;;;;10.68;3.60;;;;;;;;;;5022048;28;20476;-75
2023/01/09 14:30:52;;;;;;;9.82;2.97;;;;;;;;;;5032116;28;20053;-75
2023/01/09 14:33:18;;;;;;;9.93;3.30;;;;;;;;;;5036444;28;20042;-75
2023/01/09 14:35:50;;;;;;;7.63;3.45;;;;;;;;;;5036623;28;20479;-75
2023/01/09 14:38:19;;;;;;;11.07;3.95;;;;;;;;;;5036844;28;20095;-75
2023/01/09 14:40:48;;;;;;;9.98;3.63;;;;;;;;;;5028004;28;20037;-75
2023/01/09 14:43:21;;;;;;;10.60;3.58;;;;;;;;;;5036748;28;20041;-75
2023/01/09 14:45:48;;;;;;;12.65;3.30;;;;;;;;;;5036229;28;20052;-75
2023/01/09 14:48:16;;;;;;;12.73;3.63;;;;;;;;;;5032256;28;20045;-75
2023/01/09 14:50:53;;;;;;;9.07;2.47;;;;;;;;;;5034815;28;20113;-74
2023/01/09 14:53:22;;;;;;;12.43;3.13;;;;;;;;;;5036511;28;20060;-74
2023/01/09 14:55:50;;;;;;;8.85;3.40;;;;;;;;;;5034211;28;20054;-74
2023/01/09 14:58:23;;;;;;;7.68;2.80;;;;;;;;;;5023431;28;20092;-74